createdAt,value
2016-08-01T12:43:31.415Z,0
2016-08-01T12:44:31.440Z,0
2016-08-01T12:45:31.469Z,0
2016-08-01T12:46:31.487Z,0
2016-08-01T12:47:31.510Z,0
2016-08-01T12:48:31.534Z,0
2016-08-01T20:14:09.246Z,35.82
2016-08-01T20:14:18.216Z,95.36
2016-08-01T20:15:18.230Z,95.61
2016-08-01T20:16:18.261Z,95.56
2016-08-01T20:17:18.273Z,95.94
2016-08-01T20:18:18.295Z,95.36
2016-08-01T20:19:18.310Z,95.36
2016-08-01T20:20:18.336Z,95.27
2016-08-01T20:21:18.349Z,95.56
2016-08-01T20:22:18.367Z,96.13
2016-08-01T20:23:18.390Z,95.94
2016-08-01T20:24:18.407Z,96.22
2016-08-01T20:25:18.423Z,95.94
2016-08-01T20:26:18.441Z,96.22
2016-08-01T20:27:18.457Z,95.84
2016-08-01T20:28:18.479Z,96.13
2016-08-01T20:29:18.514Z,95.75
2016-08-01T20:30:18.513Z,96.42
2016-08-01T20:31:18.529Z,96.7
2016-08-01T20:32:18.550Z,96.7
2016-08-01T20:33:18.573Z,96.42
2016-08-01T20:34:18.585Z,96.61
2016-08-01T20:35:18.615Z,96.7
2016-08-01T20:36:18.622Z,96.89
2016-08-01T20:37:18.642Z,97.08
2016-08-01T20:38:18.660Z,96.22
2016-08-01T20:39:18.689Z,96.51
2016-08-01T20:40:18.701Z,96.32
2016-08-01T20:41:18.716Z,96.61
2016-08-01T20:42:18.731Z,96.99
2016-08-01T20:43:18.748Z,97.18
2016-08-01T20:44:18.782Z,96.7
2016-08-01T20:45:18.795Z,96.7
2016-08-01T20:46:18.806Z,96.75
2016-08-01T20:47:18.830Z,96.47
2016-08-01T20:48:18.842Z,96.51
2016-08-01T20:49:18.864Z,96.22
2016-08-01T20:50:18.883Z,95.98
2016-08-01T20:51:18.901Z,96.13
2016-08-01T20:52:18.919Z,96.08
2016-08-01T20:53:18.936Z,95.41
2016-08-01T20:54:18.957Z,95.98
2016-08-01T20:55:18.982Z,96.18
2016-08-01T20:56:18.997Z,96.08
2016-08-01T20:57:19.013Z,96.27
2016-08-01T20:58:19.036Z,96.22
2016-08-01T20:59:19.051Z,96.47
2016-08-01T21:00:19.067Z,96.27
2016-08-01T21:01:19.085Z,96.37
2016-08-01T21:02:19.097Z,96.66
2016-08-01T21:03:19.122Z,96.18
2016-08-01T21:04:19.142Z,96.03
2016-08-01T21:05:19.164Z,96.47
2016-08-01T21:06:19.176Z,96.47
2016-08-01T21:07:19.197Z,96.27
2016-08-01T21:08:19.211Z,96.66
2016-08-01T21:09:19.227Z,97.13
2016-08-01T21:10:19.248Z,96.42
2016-08-01T21:11:19.269Z,95.89
2016-08-01T21:12:19.285Z,95.89
2016-08-01T21:13:19.301Z,95.89
2016-08-01T21:14:19.316Z,96.66
2016-08-01T21:15:19.337Z,95.98
2016-08-01T21:16:19.353Z,96.51
2016-08-01T21:17:19.378Z,96.03
2016-08-01T21:18:19.394Z,96.08
2016-08-01T21:19:19.409Z,95.7
2016-08-01T21:20:19.424Z,95.46
2016-08-01T21:21:19.447Z,95.51
2016-08-01T21:22:19.471Z,95.32
2016-08-01T21:23:19.485Z,95.56
2016-08-01T21:24:19.503Z,95.22
2016-08-01T21:25:19.522Z,94.89
2016-08-01T21:26:19.540Z,94.55
2016-08-01T21:27:19.566Z,95.46
2016-08-01T21:28:19.582Z,95.46
2016-08-01T21:29:19.593Z,95.46
2016-08-01T21:30:19.607Z,94.89
2016-08-01T21:31:19.631Z,95.17
2016-08-01T21:32:19.654Z,95.17
2016-08-01T21:33:19.666Z,95.07
2016-08-01T21:34:19.685Z,95.07
2016-08-01T21:35:19.702Z,94.7
2016-08-01T21:36:19.725Z,94.89
2016-08-01T21:37:19.738Z,95.17
2016-08-01T21:38:19.766Z,94.7
2016-08-01T21:39:19.782Z,94.89
2016-08-01T21:40:19.794Z,94.31
2016-08-01T21:41:19.815Z,94.98
2016-08-01T21:42:19.833Z,94.7
2016-08-01T21:43:19.855Z,94.98
2016-08-01T21:44:19.870Z,94.6
2016-08-01T21:45:19.890Z,94.7
2016-08-01T21:46:19.910Z,94.6
2016-08-01T21:47:19.928Z,94.12
2016-08-01T21:48:19.940Z,94.41
2016-08-01T21:49:19.963Z,94.7
2016-08-01T21:50:19.981Z,94.31
2016-08-01T21:51:19.997Z,94.6
2016-08-01T21:52:20.018Z,94.21
2016-08-01T21:53:20.036Z,94.31
2016-08-01T21:54:20.055Z,94.21
2016-08-01T21:55:20.071Z,94.21
2016-08-01T21:56:20.089Z,94.21
2016-08-01T21:57:20.105Z,94.31
2016-08-01T21:58:20.127Z,94.21
2016-08-01T21:59:20.144Z,94.31
2016-08-01T22:00:20.161Z,94.02
2016-08-01T22:01:20.179Z,93.93
2016-08-01T22:02:20.202Z,94.12
2016-08-01T22:03:20.219Z,94.02
2016-08-01T22:04:20.239Z,94.02
2016-08-01T22:05:20.264Z,94.02
2016-08-01T22:06:20.280Z,93.93
2016-08-01T22:07:20.298Z,94.41
2016-08-01T22:08:20.305Z,94.12
2016-08-01T22:09:20.330Z,94.31
2016-08-01T22:10:20.347Z,94.12
2016-08-01T22:11:20.368Z,94.21
2016-08-01T22:12:20.390Z,94.26
2016-08-01T22:13:20.400Z,94.41
2016-08-01T22:14:20.418Z,94.31
2016-08-01T22:15:20.437Z,93.93
2016-08-01T22:16:20.463Z,94.02
2016-08-01T22:17:20.471Z,94.26
2016-08-01T22:18:20.492Z,94.12
2016-08-01T22:19:20.510Z,94.21
2016-08-01T22:20:20.537Z,93.93
2016-08-01T22:21:20.550Z,93.84
2016-08-01T22:22:20.569Z,93.79
2016-08-01T22:24:20.612Z,94.07
2016-08-01T22:25:20.625Z,94.26
2016-08-01T22:26:20.647Z,93.98
2016-08-01T22:27:20.659Z,93.84
2016-08-01T22:28:20.683Z,93.98
2016-08-01T22:29:20.702Z,93.79
2016-08-01T22:30:20.714Z,93.79
2016-08-01T22:31:20.743Z,93.98
2016-08-01T22:32:20.754Z,93.79
2016-08-01T22:33:20.774Z,93.59
2016-08-01T22:34:20.795Z,94.07
2016-08-01T22:35:20.807Z,94.07
2016-08-01T22:36:20.825Z,93.79
2016-08-01T22:37:20.844Z,93.98
2016-08-01T22:39:20.879Z,93.93
2016-08-01T22:40:20.904Z,93.98
2016-08-01T22:41:20.928Z,93.69
2016-08-01T22:42:20.938Z,93.88
2016-08-01T22:43:20.960Z,93.84
2016-08-01T22:44:20.977Z,93.79
2016-08-01T22:45:20.989Z,93.69
2016-08-01T22:46:21.014Z,93.88
2016-08-01T22:47:21.031Z,94.02
2016-08-01T22:48:21.050Z,94.07
2016-08-01T22:49:21.067Z,93.98
2016-08-01T22:50:21.085Z,93.98
2016-08-01T22:51:21.107Z,93.79
2016-08-01T22:52:21.123Z,93.88
2016-08-01T22:54:21.168Z,93.88
2016-08-01T22:55:21.181Z,94.02
2016-08-01T22:56:21.197Z,93.74
2016-08-01T22:57:21.222Z,93.88
2016-08-01T22:58:21.239Z,94.17
2016-08-01T22:59:21.252Z,94.21
2016-08-01T23:00:21.269Z,93.88
2016-08-01T23:01:21.290Z,94.26
2016-08-01T23:02:21.316Z,93.98
2016-08-01T23:03:21.324Z,94.55
2016-08-01T23:04:21.349Z,94.7
2016-08-01T23:05:21.360Z,94.31
2016-08-01T23:06:21.386Z,94.12
2016-08-01T23:07:21.403Z,94.6
2016-08-01T23:09:21.438Z,93.88
2016-08-01T23:10:21.451Z,93.88
2016-08-01T23:11:21.473Z,93.98
2016-08-01T23:12:21.495Z,94.36
2016-08-01T23:13:21.514Z,94.21
2016-08-01T23:14:21.535Z,93.79
2016-08-01T23:15:21.544Z,93.93
2016-08-01T23:16:21.573Z,93.74
2016-08-01T23:17:21.586Z,93.98
2016-08-01T23:18:21.604Z,93.35
2016-08-01T23:19:21.621Z,93.21
2016-08-01T23:20:21.642Z,93.55
2016-08-01T23:21:21.658Z,93.5
2016-08-01T23:22:21.685Z,93.45
2016-08-01T23:24:21.717Z,93.5
2016-08-01T23:25:21.736Z,93.16
2016-08-01T23:26:21.756Z,92.92
2016-08-01T23:27:21.768Z,93.4
2016-08-01T23:28:21.794Z,93.21
2016-08-01T23:29:21.813Z,93.59
2016-08-01T23:30:21.825Z,93.02
2016-08-01T23:31:21.844Z,93.4
2016-08-01T23:32:21.872Z,93.59
2016-08-01T23:33:21.883Z,93.12
2016-08-01T23:34:21.899Z,93.35
2016-08-01T23:35:21.921Z,93.45
2016-08-01T23:36:21.934Z,93.35
2016-08-01T23:37:21.958Z,93.4
2016-08-01T23:38:21.972Z,93.16
2016-08-01T23:39:21.989Z,93.5
2016-08-01T23:40:22.010Z,94.17
2016-08-01T23:41:22.025Z,94.26
2016-08-01T23:42:22.052Z,93.74
2016-08-01T23:43:22.070Z,93.98
2016-08-01T23:44:22.083Z,93.4
2016-08-01T23:45:22.104Z,93.16
2016-08-01T23:46:22.120Z,93.07
2016-08-01T23:47:22.136Z,93.59
2016-08-01T23:48:22.162Z,93.35
2016-08-01T23:49:22.175Z,93.07
2016-08-01T23:50:22.199Z,93.45
2016-08-01T23:51:22.213Z,92.97
2016-08-01T23:52:22.237Z,92.97
2016-08-01T23:53:22.248Z,93.45
2016-08-01T23:54:22.275Z,93.64
2016-08-01T23:55:22.169Z,93.35
2016-08-01T23:56:22.303Z,94.02
2016-08-01T23:57:22.322Z,93.16
2016-08-01T23:58:22.350Z,93.26
2016-08-01T23:59:22.362Z,93.55
